Time;durP1;ratioP1;P1;durP2;ratioP2;P2;SDS_P1;SDS_P2;PMS_P1;PMS_P2;Temp;Humidity;BMP_temperature;BMP_pressure;BME280_temperature;BME280_humidity;BME280_pressure;Samples;Min_cycle;Max_cycle;Signal;HPM_P1;HPM_P2
2023/05/09 00:00:23;;;;;;;29.27;14.90;;;;;;;;;;6221612;28;20136;-65
2023/05/09 00:03:44;;;;;;;28.30;15.02;;;;;;;;;;6223549;28;20232;-70
2023/05/09 00:06:45;;;;;;;28.95;14.60;;;;;;;;;;6220981;28;20054;-56
2023/05/09 00:09:45;;;;;;;29.92;15.05;;;;;;;;;;6226746;28;20046;-56
2023/05/09 00:12:48;;;;;;;30.05;15.40;;;;;;;;;;6223776;28;20539;-57
2023/05/09 00:15:52;;;;;;;32.58;17.00;;;;;;;;;;6227607;28;20053;-59
2023/05/09 00:18:54;;;;;;;36.00;17.40;;;;;;;;;;6226599;28;20050;-60
2023/05/09 00:21:55;;;;;;;38.17;17.88;;;;;;;;;;6230526;28;20050;-71
2023/05/09 00:24:56;;;;;;;36.25;17.25;;;;;;;;;;6234004;28;20042;-66
2023/05/09 00:27:56;;;;;;;36.30;17.40;;;;;;;;;;6225900;28;20473;-62
2023/05/09 00:30:57;;;;;;;35.90;16.95;;;;;;;;;;6224407;28;20045;-74
2023/05/09 00:33:57;;;;;;;32.10;15.80;;;;;;;;;;6224396;28;20041;-68
2023/05/09 00:36:58;;;;;;;25.92;13.45;;;;;;;;;;6224871;28;20077;-66
2023/05/09 00:39:59;;;;;;;29.95;14.60;;;;;;;;;;6217516;28;20193;-66
2023/05/09 00:42:59;;;;;;;26.88;14.18;;;;;;;;;;6220397;28;20477;-73
2023/05/09 00:46:00;;;;;;;28.73;14.05;;;;;;;;;;6225055;28;20050;-59
2023/05/09 00:49:01;;;;;;;25.52;13.75;;;;;;;;;;6224069;28;20097;-56
2023/05/09 00:52:01;;;;;;;33.90;15.25;;;;;;;;;;6222934;28;20053;-56
2023/05/09 00:55:04;;;;;;;31.05;14.00;;;;;;;;;;6223206;28;20745;-61
2023/05/09 00:58:04;;;;;;;29.85;15.50;;;;;;;;;;6237606;28;20473;-60
2023/05/09 01:01:05;;;;;;;27.58;14.18;;;;;;;;;;6217280;28;20073;-63
2023/05/09 01:04:06;;;;;;;27.83;14.27;;;;;;;;;;6231492;28;20042;-58
2023/05/09 01:07:20;;;;;;;30.50;16.90;;;;;;;;;;6221805;28;20460;-58
2023/05/09 01:10:47;;;;;;;31.25;16.83;;;;;;;;;;6219559;28;20081;-68
2023/05/09 01:14:05;;;;;;;31.67;17.30;;;;;;;;;;6221554;28;20468;-59
2023/05/09 01:17:05;;;;;;;30.95;15.88;;;;;;;;;;6223254;28;20481;-56
2023/05/09 01:20:14;;;;;;;33.25;15.13;;;;;;;;;;6237296;28;20052;-63
2023/05/09 01:23:33;;;;;;;28.55;15.05;;;;;;;;;;6224986;28;20053;-58
2023/05/09 01:26:44;;;;;;;28.73;14.48;;;;;;;;;;6222737;28;20042;-56
2023/05/09 01:29:54;;;;;;;30.42;13.80;;;;;;;;;;6223195;28;20046;-58
2023/05/09 01:32:59;;;;;;;26.83;13.07;;;;;;;;;;6225611;28;20037;-65
2023/05/09 01:36:04;;;;;;;25.00;13.95;;;;;;;;;;6235753;28;20045;-68
2023/05/09 01:39:05;;;;;;;26.45;14.25;;;;;;;;;;6230610;28;20055;-61
2023/05/09 01:42:10;;;;;;;23.47;13.30;;;;;;;;;;6227456;28;20050;-57
2023/05/09 01:45:12;;;;;;;24.20;12.85;;;;;;;;;;6230366;28;20299;-62
2023/05/09 01:48:14;;;;;;;25.42;12.32;;;;;;;;;;6223970;28;20041;-62
2023/05/09 01:51:15;;;;;;;25.58;12.90;;;;;;;;;;6222055;28;20050;-59
2023/05/09 01:54:17;;;;;;;24.90;14.55;;;;;;;;;;6240352;28;20179;-56
2023/05/09 01:57:18;;;;;;;25.05;13.98;;;;;;;;;;6232388;28;20049;-65
2023/05/09 02:00:20;;;;;;;23.88;13.45;;;;;;;;;;6228054;28;20084;-67
2023/05/09 02:03:21;;;;;;;24.27;13.57;;;;;;;;;;6228959;28;20447;-60
2023/05/09 02:06:23;;;;;;;24.50;12.68;;;;;;;;;;6222010;28;20607;-60
2023/05/09 02:09:24;;;;;;;23.23;12.82;;;;;;;;;;6225385;28;20057;-57
2023/05/09 02:12:25;;;;;;;23.33;12.57;;;;;;;;;;6226840;28;20057;-65
2023/05/09 02:15:27;;;;;;;23.30;12.93;;;;;;;;;;6223495;28;20062;-57
2023/05/09 02:18:28;;;;;;;28.92;13.93;;;;;;;;;;6223091;28;20568;-67
2023/05/09 02:21:29;;;;;;;26.13;13.00;;;;;;;;;;6219531;28;20045;-54
2023/05/09 02:24:31;;;;;;;26.00;13.82;;;;;;;;;;6222323;28;20045;-58
2023/05/09 02:27:33;;;;;;;25.35;13.52;;;;;;;;;;6228096;28;20128;-59
2023/05/09 02:30:38;;;;;;;26.13;13.15;;;;;;;;;;6228357;28;20049;-57
2023/05/09 02:33:40;;;;;;;26.33;13.60;;;;;;;;;;6227285;28;20057;-65
2023/05/09 02:36:41;;;;;;;24.02;13.15;;;;;;;;;;6225689;28;20057;-59
2023/05/09 02:39:42;;;;;;;23.75;13.75;;;;;;;;;;6228782;28;20077;-59
2023/05/09 02:42:43;;;;;;;22.55;12.82;;;;;;;;;;6226797;28;20071;-67
2023/05/09 02:45:44;;;;;;;22.60;13.05;;;;;;;;;;6227540;28;20546;-64
2023/05/09 02:48:44;;;;;;;23.85;12.68;;;;;;;;;;6224102;28;20057;-60
2023/05/09 02:51:45;;;;;;;21.63;12.18;;;;;;;;;;6227243;28;20113;-68
2023/05/09 02:54:47;;;;;;;28.77;13.18;;;;;;;;;;6229740;28;20046;-57
2023/05/09 02:57:47;;;;;;;22.77;12.70;;;;;;;;;;6241171;28;20510;-60
2023/05/09 03:00:48;;;;;;;23.73;12.32;;;;;;;;;;6226542;28;20045;-73
2023/05/09 03:03:48;;;;;;;24.23;12.38;;;;;;;;;;6233196;28;20072;-63
2023/05/09 03:06:49;;;;;;;25.20;13.90;;;;;;;;;;6226431;28;20053;-57
2023/05/09 03:09:50;;;;;;;24.75;13.18;;;;;;;;;;6225813;28;20042;-56
2023/05/09 03:12:50;;;;;;;22.23;11.77;;;;;;;;;;6224824;28;20353;-58
2023/05/09 03:15:51;;;;;;;22.02;12.30;;;;;;;;;;6220910;28;20057;-65
2023/05/09 03:18:52;;;;;;;24.55;13.25;;;;;;;;;;6219887;28;20488;-60
2023/05/09 03:21:53;;;;;;;23.70;12.85;;;;;;;;;;6218983;28;20054;-59
2023/05/09 03:24:53;;;;;;;25.35;12.52;;;;;;;;;;6218841;28;20046;-56
2023/05/09 03:27:54;;;;;;;21.00;12.38;;;;;;;;;;6220130;28;20448;-60
2023/05/09 03:30:55;;;;;;;21.45;12.23;;;;;;;;;;6221330;28;20046;-68
2023/05/09 03:33:56;;;;;;;22.23;12.40;;;;;;;;;;6226698;28;20060;-58
2023/05/09 03:36:56;;;;;;;22.02;11.82;;;;;;;;;;6223833;28;20910;-57
2023/05/09 03:39:57;;;;;;;23.08;12.52;;;;;;;;;;6221316;28;20052;-55
2023/05/09 03:42:58;;;;;;;20.92;12.55;;;;;;;;;;6226806;28;20038;-60
2023/05/09 03:45:58;;;;;;;26.20;13.20;;;;;;;;;;6225090;28;20672;-72
2023/05/09 03:48:59;;;;;;;23.58;12.77;;;;;;;;;;6229945;28;20068;-68
2023/05/09 03:51:59;;;;;;;21.05;13.05;;;;;;;;;;6225665;28;20042;-71
2023/05/09 03:55:00;;;;;;;21.00;13.00;;;;;;;;;;6224785;28;20137;-59
2023/05/09 03:58:01;;;;;;;21.58;12.48;;;;;;;;;;6223729;28;20124;-58
2023/05/09 04:01:02;;;;;;;23.73;12.70;;;;;;;;;;6222549;28;20042;-57
2023/05/09 04:04:02;;;;;;;21.55;12.75;;;;;;;;;;6225913;28;20049;-65
2023/05/09 04:07:04;;;;;;;22.73;11.88;;;;;;;;;;6223905;28;20115;-70
2023/05/09 04:10:05;;;;;;;24.55;13.20;;;;;;;;;;6223761;28;20065;-57
2023/05/09 04:13:05;;;;;;;20.10;12.00;;;;;;;;;;6223147;28;20053;-60
2023/05/09 04:16:06;;;;;;;21.77;12.52;;;;;;;;;;6225286;28;20045;-57
2023/05/09 04:19:07;;;;;;;22.13;12.05;;;;;;;;;;6223173;28;20480;-57
2023/05/09 04:22:07;;;;;;;19.83;11.10;;;;;;;;;;6225891;28;20993;-61
2023/05/09 04:25:11;;;;;;;20.92;11.98;;;;;;;;;;6225807;28;20041;-57
2023/05/09 04:28:11;;;;;;;22.63;12.43;;;;;;;;;;6221329;28;20630;-60
2023/05/09 04:31:13;;;;;;;23.02;13.52;;;;;;;;;;6223048;28;20044;-59
2023/05/09 04:34:14;;;;;;;26.08;12.40;;;;;;;;;;6205524;28;20068;-71
2023/05/09 04:37:14;;;;;;;21.02;13.05;;;;;;;;;;6221648;28;20068;-58
2023/05/09 04:40:15;;;;;;;30.80;16.15;;;;;;;;;;6222325;28;20050;-58
2023/05/09 04:43:16;;;;;;;47.22;20.75;;;;;;;;;;6223566;28;20045;-65
2023/05/09 04:46:17;;;;;;;33.92;17.77;;;;;;;;;;6222934;28;20123;-57
2023/05/09 04:49:17;;;;;;;36.88;16.98;;;;;;;;;;6222399;28;20196;-61
2023/05/09 04:52:18;;;;;;;46.22;19.25;;;;;;;;;;6225506;28;20381;-58
2023/05/09 04:55:18;;;;;;;76.60;26.67;;;;;;;;;;6223793;28;20466;-62
2023/05/09 04:58:19;;;;;;;74.32;26.38;;;;;;;;;;6224516;28;20049;-70
2023/05/09 05:01:20;;;;;;;31.65;14.15;;;;;;;;;;6223999;28;20136;-65
2023/05/09 05:04:20;;;;;;;34.35;15.35;;;;;;;;;;6225540;28;20650;-63
2023/05/09 05:07:21;;;;;;;35.28;16.77;;;;;;;;;;6239218;28;20495;-63
2023/05/09 05:10:22;;;;;;;28.58;13.85;;;;;;;;;;6235338;28;20046;-59
2023/05/09 05:13:22;;;;;;;20.77;11.68;;;;;;;;;;6221592;28;20448;-53
2023/05/09 05:16:23;;;;;;;24.83;12.38;;;;;;;;;;6221241;28;20058;-60
2023/05/09 05:19:24;;;;;;;29.08;13.48;;;;;;;;;;6220175;28;20095;-56
2023/05/09 05:22:24;;;;;;;21.70;11.98;;;;;;;;;;6220841;28;20381;-69
2023/05/09 05:25:25;;;;;;;30.00;14.23;;;;;;;;;;6226584;28;20056;-55
2023/05/09 05:28:26;;;;;;;21.08;12.27;;;;;;;;;;6241718;28;20052;-57
2023/05/09 05:31:26;;;;;;;19.50;11.65;;;;;;;;;;6241948;28;20130;-56
2023/05/09 05:34:27;;;;;;;36.30;17.02;;;;;;;;;;6240702;28;20053;-70
2023/05/09 05:37:27;;;;;;;23.05;12.13;;;;;;;;;;6240936;28;20132;-65
2023/05/09 05:40:28;;;;;;;22.55;11.43;;;;;;;;;;6237572;28;20052;-57
2023/05/09 05:43:29;;;;;;;20.88;10.93;;;;;;;;;;6226972;28;20054;-63
2023/05/09 05:46:29;;;;;;;22.75;11.52;;;;;;;;;;6240223;28;20099;-70
2023/05/09 05:49:30;;;;;;;18.67;10.73;;;;;;;;;;6240294;28;20164;-67
2023/05/09 05:52:31;;;;;;;17.60;9.82;;;;;;;;;;6242383;28;20100;-71
2023/05/09 05:55:31;;;;;;;17.63;10.30;;;;;;;;;;6242262;28;20081;-67
2023/05/09 05:58:32;;;;;;;14.13;8.80;;;;;;;;;;6239769;28;20049;-60
2023/05/09 06:01:32;;;;;;;16.50;8.95;;;;;;;;;;6240829;28;20083;-61
2023/05/09 06:04:33;;;;;;;16.15;8.75;;;;;;;;;;6239999;28;20052;-66
2023/05/09 06:07:34;;;;;;;16.88;8.82;;;;;;;;;;6240494;28;20057;-60
2023/05/09 06:10:34;;;;;;;16.40;8.90;;;;;;;;;;6240264;28;20051;-61
2023/05/09 06:13:35;;;;;;;15.27;7.95;;;;;;;;;;6241186;28;20091;-56
2023/05/09 06:16:36;;;;;;;18.35;8.73;;;;;;;;;;6241286;28;20037;-57
2023/05/09 06:19:37;;;;;;;23.30;9.18;;;;;;;;;;6238723;28;20041;-64
2023/05/09 06:22:37;;;;;;;14.43;8.20;;;;;;;;;;6241160;28;20451;-58
2023/05/09 06:25:38;;;;;;;17.05;8.90;;;;;;;;;;6239942;28;20091;-66
2023/05/09 06:28:38;;;;;;;15.75;8.88;;;;;;;;;;6221509;28;20050;-57
2023/05/09 06:31:39;;;;;;;17.30;8.88;;;;;;;;;;6239138;28;20532;-56
2023/05/09 06:34:40;;;;;;;17.17;8.50;;;;;;;;;;6241261;28;20061;-57
2023/05/09 06:37:41;;;;;;;17.33;8.77;;;;;;;;;;6240330;28;20435;-73
2023/05/09 06:40:42;;;;;;;14.98;8.45;;;;;;;;;;6240098;28;20290;-70
2023/05/09 06:43:42;;;;;;;16.75;8.48;;;;;;;;;;6239988;28;20042;-58
2023/05/09 06:46:43;;;;;;;18.63;8.15;;;;;;;;;;6240563;28;20053;-74
2023/05/09 06:49:43;;;;;;;19.27;7.32;;;;;;;;;;6239181;28;20125;-55
2023/05/09 06:52:44;;;;;;;17.63;7.82;;;;;;;;;;6234926;28;20049;-70
2023/05/09 06:55:45;;;;;;;14.00;7.63;;;;;;;;;;6234250;28;20148;-68
2023/05/09 06:58:46;;;;;;;14.30;7.50;;;;;;;;;;6239062;28;20060;-65
2023/05/09 07:01:46;;;;;;;15.65;7.97;;;;;;;;;;6240735;28;20046;-60
2023/05/09 07:04:47;;;;;;;15.02;8.10;;;;;;;;;;6216359;28;20046;-58
2023/05/09 07:07:48;;;;;;;13.90;7.38;;;;;;;;;;6217180;28;20082;-60
2023/05/09 07:10:48;;;;;;;15.13;8.02;;;;;;;;;;6219041;28;20453;-60
2023/05/09 07:13:49;;;;;;;13.32;7.15;;;;;;;;;;6223587;28;20056;-61
2023/05/09 07:16:49;;;;;;;19.00;7.47;;;;;;;;;;6221301;28;20495;-61
2023/05/09 07:19:50;;;;;;;17.67;8.63;;;;;;;;;;6222931;28;21658;-59
2023/05/09 07:22:51;;;;;;;14.02;7.30;;;;;;;;;;6224455;28;20053;-59
2023/05/09 07:25:58;;;;;;;18.02;8.43;;;;;;;;;;6222282;28;20572;-57
2023/05/09 07:28:58;;;;;;;17.70;8.15;;;;;;;;;;6220253;28;20038;-59
2023/05/09 07:31:59;;;;;;;13.98;7.40;;;;;;;;;;6219779;28;20493;-64
2023/05/09 07:34:59;;;;;;;13.27;7.47;;;;;;;;;;6221127;28;20409;-59
2023/05/09 07:38:00;;;;;;;12.88;6.95;;;;;;;;;;6222836;28;20045;-60
2023/05/09 07:41:01;;;;;;;16.40;7.70;;;;;;;;;;6221394;28;20041;-59
2023/05/09 07:44:02;;;;;;;14.15;7.03;;;;;;;;;;6222158;28;20042;-57
2023/05/09 07:47:04;;;;;;;14.52;6.78;;;;;;;;;;6222031;28;20064;-60
2023/05/09 07:50:05;;;;;;;13.18;6.80;;;;;;;;;;6220939;28;20068;-57
2023/05/09 07:53:05;;;;;;;11.48;6.68;;;;;;;;;;6223071;28;20645;-59
2023/05/09 07:56:06;;;;;;;12.82;5.93;;;;;;;;;;6225082;28;20144;-63
2023/05/09 07:59:07;;;;;;;12.00;6.68;;;;;;;;;;6220247;28;20432;-60
2023/05/09 08:02:08;;;;;;;14.40;6.53;;;;;;;;;;6223527;28;20092;-65
2023/05/09 08:05:10;;;;;;;12.13;6.20;;;;;;;;;;6222387;28;20046;-60
2023/05/09 08:08:11;;;;;;;12.88;5.65;;;;;;;;;;6219220;28;20053;-60
2023/05/09 08:11:11;;;;;;;8.77;5.40;;;;;;;;;;6223951;28;20598;-64
2023/05/09 08:14:12;;;;;;;11.18;6.55;;;;;;;;;;6222140;28;20454;-59
2023/05/09 08:17:12;;;;;;;15.43;6.30;;;;;;;;;;6222972;28;20469;-65
2023/05/09 08:20:13;;;;;;;11.18;6.20;;;;;;;;;;6221850;28;20064;-61
2023/05/09 08:23:13;;;;;;;10.32;5.57;;;;;;;;;;6220466;28;20505;-60
2023/05/09 08:26:14;;;;;;;15.60;6.00;;;;;;;;;;6222797;28;20074;-60
2023/05/09 08:29:16;;;;;;;9.90;5.43;;;;;;;;;;6223967;28;20240;-63
2023/05/09 08:32:18;;;;;;;;;;;;;;;;;;6220257;28;20053;-60
2023/05/09 08:35:19;;;;;;;9.75;5.80;;;;;;;;;;6221328;28;19926;-57
2023/05/09 08:38:20;;;;;;;16.90;6.30;;;;;;;;;;6218217;28;20508;-61
2023/05/09 08:41:26;;;;;;;19.73;5.65;;;;;;;;;;6223312;28;20318;-61
2023/05/09 08:44:29;;;;;;;9.27;5.35;;;;;;;;;;6220030;28;20340;-60
2023/05/09 08:47:34;;;;;;;10.43;5.35;;;;;;;;;;6221685;28;20053;-61
2023/05/09 08:50:35;;;;;;;8.40;5.22;;;;;;;;;;6220194;28;20598;-60
2023/05/09 08:53:36;;;;;;;10.63;4.85;;;;;;;;;;6219658;28;20054;-58
2023/05/09 08:56:37;;;;;;;9.65;4.95;;;;;;;;;;6219616;28;20049;-57
2023/05/09 08:59:41;;;;;;;8.27;5.07;;;;;;;;;;6218784;28;20077;-67
2023/05/09 09:02:42;;;;;;;9.52;5.43;;;;;;;;;;6221265;28;20046;-59
2023/05/09 09:05:43;;;;;;;8.38;4.93;;;;;;;;;;6219996;28;20056;-60
2023/05/09 09:08:45;;;;;;;10.17;5.40;;;;;;;;;;6216842;28;20137;-61
2023/05/09 09:11:46;;;;;;;8.98;5.20;;;;;;;;;;6216576;28;20056;-59
2023/05/09 09:14:52;;;;;;;7.80;4.63;;;;;;;;;;6219381;28;20038;-59
2023/05/09 09:17:57;;;;;;;8.05;4.88;;;;;;;;;;6218644;28;20050;-61
2023/05/09 09:21:05;;;;;;;6.95;4.43;;;;;;;;;;6216309;28;20046;-59
2023/05/09 09:24:06;;;;;;;8.68;4.90;;;;;;;;;;6217348;28;20374;-60
2023/05/09 09:27:07;;;;;;;8.60;4.15;;;;;;;;;;6221609;28;20052;-60
2023/05/09 09:30:10;;;;;;;8.57;3.72;;;;;;;;;;6221326;28;20057;-60
2023/05/09 09:33:19;;;;;;;6.85;4.45;;;;;;;;;;6226393;28;20053;-60
2023/05/09 09:36:27;;;;;;;8.88;4.50;;;;;;;;;;6221827;28;20233;-67
2023/05/09 09:39:28;;;;;;;8.80;5.55;;;;;;;;;;6218509;28;20525;-60
2023/05/09 09:42:45;;;;;;;9.57;4.43;;;;;;;;;;6217633;28;20062;-61
2023/05/09 09:45:49;;;;;;;9.10;4.93;;;;;;;;;;6219965;28;20050;-60
2023/05/09 09:48:53;;;;;;;6.43;3.60;;;;;;;;;;6220335;28;20046;-59
2023/05/09 09:51:56;;;;;;;6.93;3.80;;;;;;;;;;6218270;28;20043;-60
2023/05/09 09:54:58;;;;;;;7.30;3.70;;;;;;;;;;6217715;28;20041;-62
2023/05/09 09:57:59;;;;;;;6.90;3.85;;;;;;;;;;6218529;28;20125;-62
2023/05/09 10:01:07;;;;;;;7.70;4.13;;;;;;;;;;6218895;28;20410;-60
2023/05/09 10:04:15;;;;;;;7.18;3.80;;;;;;;;;;6216170;28;20053;-61
2023/05/09 10:07:20;;;;;;;6.28;4.20;;;;;;;;;;6215050;28;20465;-58
2023/05/09 10:10:21;;;;;;;7.72;3.97;;;;;;;;;;6215788;28;20404;-58
2023/05/09 10:13:22;;;;;;;7.13;3.60;;;;;;;;;;6217771;28;20041;-59
2023/05/09 10:16:23;;;;;;;9.30;4.07;;;;;;;;;;6215364;28;20408;-60
2023/05/09 10:19:28;;;;;;;8.90;4.72;;;;;;;;;;6217752;28;20053;-61
2023/05/09 10:22:32;;;;;;;7.60;3.67;;;;;;;;;;6217470;28;20500;-60
2023/05/09 10:25:41;;;;;;;7.97;3.72;;;;;;;;;;6219729;28;20089;-60
2023/05/09 10:28:45;;;;;;;5.90;3.40;;;;;;;;;;6215981;28;20042;-61
2023/05/09 10:31:45;;;;;;;7.57;3.83;;;;;;;;;;6220593;28;20042;-59
2023/05/09 10:34:51;;;;;;;6.80;4.10;;;;;;;;;;6216481;28;20060;-61
2023/05/09 10:37:56;;;;;;;7.18;3.97;;;;;;;;;;6216564;28;20042;-59
2023/05/09 10:40:57;;;;;;;7.15;4.20;;;;;;;;;;6221200;28;20067;-60
2023/05/09 10:43:58;;;;;;;8.85;3.60;;;;;;;;;;6219542;28;20046;-60
2023/05/09 10:47:00;;;;;;;7.43;4.13;;;;;;;;;;6221876;28;20038;-59
2023/05/09 10:50:01;;;;;;;12.18;3.90;;;;;;;;;;6225076;28;20046;-58
2023/05/09 10:53:04;;;;;;;8.40;3.97;;;;;;;;;;6223020;28;20059;-60
2023/05/09 10:56:05;;;;;;;7.22;3.58;;;;;;;;;;6220827;28;20107;-58
2023/05/09 10:59:36;;;;;;;14.65;4.78;;;;;;;;;;6224318;28;20435;-61
2023/05/09 11:02:37;;;;;;;6.82;3.28;;;;;;;;;;6221572;28;20049;-61
2023/05/09 11:05:39;;;;;;;6.15;3.60;;;;;;;;;;6223125;28;20069;-60
2023/05/09 11:08:41;;;;;;;9.75;4.10;;;;;;;;;;6221968;28;20049;-60
2023/05/09 11:11:53;;;;;;;5.47;3.67;;;;;;;;;;6224014;28;20042;-58
2023/05/09 11:15:04;;;;;;;10.63;3.50;;;;;;;;;;6221806;28;20042;-61
2023/05/09 11:18:06;;;;;;;5.85;3.08;;;;;;;;;;6219103;28;20092;-59
2023/05/09 11:21:08;;;;;;;;;;;;;;;;;;6224620;28;20038;-62
2023/05/09 11:24:15;;;;;;;6.07;3.20;;;;;;;;;;6221386;28;19952;-59
2023/05/09 11:27:24;;;;;;;7.38;3.20;;;;;;;;;;6222586;28;20557;-60
2023/05/09 11:30:37;;;;;;;6.50;3.45;;;;;;;;;;6220547;28;20577;-60
2023/05/09 11:33:39;;;;;;;7.28;3.80;;;;;;;;;;6220305;28;20057;-59
2023/05/09 11:36:46;;;;;;;5.70;3.17;;;;;;;;;;6225131;28;20092;-60
2023/05/09 11:40:03;;;;;;;8.82;3.78;;;;;;;;;;6221060;28;20404;-61
2023/05/09 11:43:06;;;;;;;5.28;3.35;;;;;;;;;;6218531;28;20038;-59
2023/05/09 11:46:06;;;;;;;5.97;3.40;;;;;;;;;;6220607;28;20419;-60
2023/05/09 11:49:07;;;;;;;25.25;11.57;;;;;;;;;;6222693;28;20049;-59
2023/05/09 11:52:08;;;;;;;11.68;5.07;;;;;;;;;;6221826;28;20060;-60
2023/05/09 11:55:11;;;;;;;5.88;3.38;;;;;;;;;;6221193;28;20049;-58
2023/05/09 11:58:12;;;;;;;6.22;3.10;;;;;;;;;;6219968;28;20080;-59
2023/05/09 12:01:12;;;;;;;5.13;3.38;;;;;;;;;;6220768;28;20048;-57
2023/05/09 12:04:13;;;;;;;5.72;3.05;;;;;;;;;;6219318;28;20045;-59
2023/05/09 12:07:15;;;;;;;6.15;3.65;;;;;;;;;;6223238;28;20087;-59
2023/05/09 12:10:19;;;;;;;6.40;3.58;;;;;;;;;;6223583;28;20049;-72
2023/05/09 12:13:19;;;;;;;6.10;3.80;;;;;;;;;;6220767;28;20139;-59
2023/05/09 12:16:20;;;;;;;7.15;3.78;;;;;;;;;;6222230;28;20145;-58
2023/05/09 12:19:25;;;;;;;6.03;3.70;;;;;;;;;;6222186;28;20496;-60
2023/05/09 12:25:55;;;;;;;6.05;3.90;;;;;;;;;;6263199;22;20076;-58
2023/05/09 12:28:56;;;;;;;5.53;3.17;;;;;;;;;;6218082;28;20510;-59
2023/05/09 12:31:57;;;;;;;6.07;3.67;;;;;;;;;;6217227;28;20038;-59
2023/05/09 12:34:59;;;;;;;7.93;4.40;;;;;;;;;;6218933;28;20403;-57
2023/05/09 12:38:00;;;;;;;5.57;3.38;;;;;;;;;;6221603;28;20721;-58
2023/05/09 12:41:02;;;;;;;5.00;2.60;;;;;;;;;;6217262;28;20044;-60
2023/05/09 12:44:02;;;;;;;4.95;2.83;;;;;;;;;;6220366;28;20069;-58
2023/05/09 12:47:03;;;;;;;5.00;3.20;;;;;;;;;;6218735;28;20056;-58
2023/05/09 12:50:05;;;;;;;5.40;2.90;;;;;;;;;;6221662;28;20033;-57
2023/05/09 12:53:06;;;;;;;;;;;;;;;;;;6220342;28;20045;-68
2023/05/09 12:56:18;;;;;;;5.15;2.90;;;;;;;;;;6218525;28;19928;-59
2023/05/09 12:59:20;;;;;;;5.38;2.90;;;;;;;;;;6219094;28;20037;-60
2023/05/09 13:02:20;;;;;;;;;;;;;;;;;;6219367;28;20040;-58
2023/05/09 13:05:22;;;;;;;6.57;3.38;;;;;;;;;;6217093;28;20377;-59
2023/05/09 13:08:22;;;;;;;9.50;4.28;;;;;;;;;;6218132;28;20038;-60
2023/05/09 13:11:24;;;;;;;6.97;4.53;;;;;;;;;;6217775;28;20428;-60
2023/05/09 13:14:25;;;;;;;5.90;3.45;;;;;;;;;;6219942;28;20396;-60
2023/05/09 13:17:26;;;;;;;7.22;4.00;;;;;;;;;;6219576;28;20041;-59
2023/05/09 13:20:26;;;;;;;7.93;3.90;;;;;;;;;;6224152;28;20061;-59
2023/05/09 13:23:27;;;;;;;7.07;3.20;;;;;;;;;;6208042;28;20206;-60
2023/05/09 13:26:28;;;;;;;7.38;3.47;;;;;;;;;;6212298;28;20054;-58
2023/05/09 13:29:29;;;;;;;8.17;3.20;;;;;;;;;;6214823;28;20496;-59
2023/05/09 13:32:30;;;;;;;7.30;3.97;;;;;;;;;;6210227;28;20092;-59
2023/05/09 13:35:31;;;;;;;5.32;3.10;;;;;;;;;;6213699;28;20530;-59
2023/05/09 13:38:35;;;;;;;7.63;3.45;;;;;;;;;;6215022;28;20129;-58
2023/05/09 13:41:36;;;;;;;5.95;3.20;;;;;;;;;;6209839;28;20104;-63
2023/05/09 13:44:36;;;;;;;7.57;4.00;;;;;;;;;;6213070;28;20531;-60
2023/05/09 13:47:37;;;;;;;7.22;4.85;;;;;;;;;;6214733;28;20673;-63
2023/05/09 13:50:38;;;;;;;8.52;4.25;;;;;;;;;;6211445;28;20562;-61
2023/05/09 13:53:38;;;;;;;7.78;4.22;;;;;;;;;;6211058;28;20117;-60
2023/05/09 13:56:39;;;;;;;7.72;3.78;;;;;;;;;;6209679;28;20050;-58
2023/05/09 13:59:40;;;;;;;7.73;3.93;;;;;;;;;;6210181;28;20103;-58
2023/05/09 14:02:40;;;;;;;7.30;3.07;;;;;;;;;;6211624;28;20504;-59
2023/05/09 14:05:41;;;;;;;7.50;3.50;;;;;;;;;;6211494;28;20091;-58
2023/05/09 14:08:42;;;;;;;5.50;3.45;;;;;;;;;;6214192;28;20056;-59
2023/05/09 14:11:43;;;;;;;6.88;3.30;;;;;;;;;;6208010;28;20469;-58
2023/05/09 14:14:43;;;;;;;5.47;3.40;;;;;;;;;;6213981;28;20748;-61
2023/05/09 14:17:44;;;;;;;5.97;3.25;;;;;;;;;;6213095;28;20551;-59
2023/05/09 14:20:44;;;;;;;7.03;3.10;;;;;;;;;;6214495;28;20052;-61
2023/05/09 14:23:45;;;;;;;7.20;3.78;;;;;;;;;;6211505;28;20049;-64
2023/05/09 14:26:46;;;;;;;8.20;4.28;;;;;;;;;;6213819;28;20537;-65
2023/05/09 14:29:48;;;;;;;7.57;3.28;;;;;;;;;;6214660;28;20041;-59
2023/05/09 14:32:48;;;;;;;11.30;5.65;;;;;;;;;;6209940;28;20050;-60
2023/05/09 14:35:49;;;;;;;11.38;4.03;;;;;;;;;;6214307;28;20577;-58
2023/05/09 14:38:50;;;;;;;8.00;3.47;;;;;;;;;;6214123;28;20096;-59
2023/05/09 14:41:50;;;;;;;12.18;3.70;;;;;;;;;;6210533;28;20120;-67
2023/05/09 14:44:51;;;;;;;7.68;3.70;;;;;;;;;;6214703;28;20050;-54
2023/05/09 14:47:52;;;;;;;4.90;2.85;;;;;;;;;;6213662;28;20116;-65
2023/05/09 14:50:55;;;;;;;5.65;3.42;;;;;;;;;;6211802;28;20037;-66
2023/05/09 14:53:56;;;;;;;5.50;2.83;;;;;;;;;;6213122;28;20053;-58
2023/05/09 14:56:58;;;;;;;7.60;3.65;;;;;;;;;;6216857;28;20085;-58
2023/05/09 14:59:59;;;;;;;7.07;3.10;;;;;;;;;;6211942;28;20049;-60
2023/05/09 15:02:59;;;;;;;5.57;3.10;;;;;;;;;;6209987;28;20072;-59
2023/05/09 15:06:00;;;;;;;5.43;3.30;;;;;;;;;;6214614;28;20117;-61
2023/05/09 15:09:01;;;;;;;5.73;2.93;;;;;;;;;;6214577;28;20046;-60
2023/05/09 15:12:02;;;;;;;5.63;3.23;;;;;;;;;;6209327;28;20081;-58
2023/05/09 15:15:14;;;;;;;5.87;3.40;;;;;;;;;;6209443;28;20689;-58
2023/05/09 15:18:17;;;;;;;;;;;;;;;;;;6212425;28;20057;-59
2023/05/09 15:21:17;;;;;;;7.68;3.13;;;;;;;;;;6209468;28;19929;-59
2023/05/09 15:24:18;;;;;;;6.40;3.28;;;;;;;;;;6215225;28;20054;-60
2023/05/09 15:27:19;;;;;;;5.82;3.20;;;;;;;;;;6215249;28;20055;-59
2023/05/09 15:30:19;;;;;;;5.25;2.90;;;;;;;;;;6195168;28;20116;-59
2023/05/09 15:33:20;;;;;;;6.75;3.45;;;;;;;;;;6211964;28;20732;-59
2023/05/09 15:36:21;;;;;;;6.13;3.33;;;;;;;;;;6216801;28;21413;-58
2023/05/09 15:39:21;;;;;;;5.33;3.13;;;;;;;;;;6215528;28;20408;-59
2023/05/09 15:42:22;;;;;;;5.85;3.22;;;;;;;;;;6214636;28;20072;-56
2023/05/09 15:45:23;;;;;;;5.17;3.00;;;;;;;;;;6217415;28;20427;-59
2023/05/09 15:48:23;;;;;;;9.03;3.83;;;;;;;;;;6216823;28;20470;-61
2023/05/09 15:51:24;;;;;;;6.20;3.42;;;;;;;;;;6212112;28;20061;-68
2023/05/09 15:54:25;;;;;;;8.77;3.90;;;;;;;;;;6214966;28;20064;-59
2023/05/09 15:57:27;;;;;;;11.27;5.43;;;;;;;;;;6216563;28;20393;-59
2023/05/09 16:00:31;;;;;;;9.40;3.97;;;;;;;;;;6216325;28;20054;-62
2023/05/09 16:03:33;;;;;;;5.78;2.97;;;;;;;;;;6215263;28;20045;-60
2023/05/09 16:06:34;;;;;;;5.50;3.20;;;;;;;;;;6218315;28;20045;-58
2023/05/09 16:09:36;;;;;;;8.02;4.00;;;;;;;;;;6215022;28;20042;-60
2023/05/09 16:12:36;;;;;;;10.70;7.22;;;;;;;;;;6212275;28;20055;-63
2023/05/09 16:15:37;;;;;;;8.15;5.57;;;;;;;;;;6216112;28;20493;-64
2023/05/09 16:18:37;;;;;;;6.78;4.00;;;;;;;;;;6214719;28;20144;-63
2023/05/09 16:21:38;;;;;;;7.13;3.90;;;;;;;;;;6212080;28;20046;-66
2023/05/09 16:24:39;;;;;;;10.65;3.85;;;;;;;;;;6216302;28;20412;-61
2023/05/09 16:27:39;;;;;;;8.73;3.35;;;;;;;;;;6220346;28;20042;-63
2023/05/09 16:30:40;;;;;;;8.43;3.17;;;;;;;;;;6216427;28;20046;-62
2023/05/09 16:33:40;;;;;;;6.47;2.65;;;;;;;;;;6213675;28;20516;-62
2023/05/09 16:36:42;;;;;;;6.50;3.17;;;;;;;;;;6215525;28;21374;-62
2023/05/09 16:39:44;;;;;;;5.70;3.50;;;;;;;;;;6215052;28;20049;-62
2023/05/09 16:42:45;;;;;;;5.20;3.05;;;;;;;;;;6213726;28;20038;-62
2023/05/09 16:45:46;;;;;;;7.40;3.47;;;;;;;;;;6216186;28;20046;-62
2023/05/09 16:48:49;;;;;;;;;;;;;;;;;;6217562;28;20068;-62
2023/05/09 16:51:51;;;;;;;7.03;3.58;;;;;;;;;;6210388;28;19959;-64
2023/05/09 16:54:53;;;;;;;6.88;3.00;;;;;;;;;;6215499;28;20049;-62
2023/05/09 16:57:53;;;;;;;5.68;3.00;;;;;;;;;;6219407;28;20045;-64
2023/05/09 17:00:54;;;;;;;8.23;4.10;;;;;;;;;;6215202;28;20403;-60
2023/05/09 17:03:55;;;;;;;6.38;3.30;;;;;;;;;;6214035;28;20046;-60
2023/05/09 17:06:56;;;;;;;4.30;2.72;;;;;;;;;;6221174;28;20069;-60
2023/05/09 17:09:59;;;;;;;5.03;2.95;;;;;;;;;;6217763;28;20526;-73
2023/05/09 17:13:06;;;;;;;5.55;3.10;;;;;;;;;;6215835;28;20042;-61
2023/05/09 17:16:06;;;;;;;6.68;3.40;;;;;;;;;;6214343;28;20081;-70
2023/05/09 17:19:07;;;;;;;10.30;3.95;;;;;;;;;;6219053;28;20822;-63
2023/05/09 17:22:08;;;;;;;8.82;3.65;;;;;;;;;;6216240;28;20038;-62
2023/05/09 17:25:08;;;;;;;6.75;3.72;;;;;;;;;;6220515;28;20075;-62
2023/05/09 17:28:09;;;;;;;9.05;5.40;;;;;;;;;;6214999;28;20075;-61
2023/05/09 17:31:10;;;;;;;6.38;3.38;;;;;;;;;;6219484;28;20042;-60
2023/05/09 17:34:10;;;;;;;6.78;3.55;;;;;;;;;;6219268;28;20053;-73
2023/05/09 17:37:11;;;;;;;7.25;3.83;;;;;;;;;;6217468;28;20046;-69
2023/05/09 17:40:12;;;;;;;6.82;3.60;;;;;;;;;;6224302;28;20065;-56
2023/05/09 17:43:13;;;;;;;7.70;3.70;;;;;;;;;;6217260;28;20056;-60
2023/05/09 17:46:13;;;;;;;7.43;4.55;;;;;;;;;;6221507;28;20045;-57
2023/05/09 17:49:15;;;;;;;10.02;4.75;;;;;;;;;;6216480;28;20046;-60
2023/05/09 17:52:16;;;;;;;10.32;5.43;;;;;;;;;;6217290;28;20488;-61
2023/05/09 17:55:17;;;;;;;7.32;4.20;;;;;;;;;;6221120;28;20048;-59
2023/05/09 17:58:19;;;;;;;9.50;5.90;;;;;;;;;;6213334;28;20045;-60
2023/05/09 18:01:20;;;;;;;9.35;5.60;;;;;;;;;;6208909;28;20794;-61